createdAt,value
2022-12-19T00:00:04.515Z,10.50
2022-12-19T00:03:14.381Z,11.57
2022-12-19T00:06:17.796Z,8.50
2022-12-19T00:09:19.366Z,9.48
2022-12-19T00:12:20.885Z,9.57
2022-12-19T00:15:22.537Z,8.43
2022-12-19T00:18:24.013Z,9.05
2022-12-19T00:21:30.478Z,10.02
2022-12-19T00:24:32.063Z,9.02
2022-12-19T00:27:36.711Z,9.35
2022-12-19T00:30:38.178Z,9.18
2022-12-19T00:33:40.646Z,7.32
2022-12-19T00:36:46.615Z,7.47
2022-12-19T00:39:48.103Z,5.03
2022-12-19T00:42:53.506Z,5.82
2022-12-19T00:45:55.471Z,6.38
2022-12-19T00:48:58.775Z,7.07
2022-12-19T00:52:00.227Z,6.50
2022-12-19T00:55:01.752Z,7.50
2022-12-19T00:58:05.234Z,7.25
2022-12-19T01:01:09.158Z,6.07
2022-12-19T01:04:31.711Z,6.25
2022-12-19T01:07:35.504Z,5.57
2022-12-19T01:10:37.417Z,5.13
2022-12-19T01:13:42.059Z,6.68
2022-12-19T01:16:44.000Z,8.45
2022-12-19T01:19:45.654Z,6.55
2022-12-19T01:22:47.583Z,7.97
2022-12-19T01:25:53.240Z,6.95
2022-12-19T01:28:54.972Z,7.40
2022-12-19T01:31:56.541Z,6.93
2022-12-19T01:34:58.240Z,6.70
2022-12-19T01:38:07.613Z,5.55
2022-12-19T01:41:10.640Z,5.70
2022-12-19T01:44:12.237Z,6.85
2022-12-19T01:47:13.897Z,5.32
2022-12-19T01:50:29.587Z,5.40
2022-12-19T01:53:44.689Z,5.50
2022-12-19T01:56:53.463Z,6.88
2022-12-19T01:59:59.236Z,5.93
2022-12-19T02:03:08.450Z,7.95
2022-12-19T02:06:15.833Z,6.93
2022-12-19T02:09:17.530Z,5.63
2022-12-19T02:12:19.405Z,5.18
2022-12-19T02:15:23.680Z,5.00
2022-12-19T02:18:41.550Z,5.80
2022-12-19T02:21:57.623Z,6.82
2022-12-19T02:25:18.197Z,6.32
2022-12-19T02:28:58.024Z,5.57
2022-12-19T02:32:12.120Z,4.82
2022-12-19T02:35:19.844Z,6.80
2022-12-19T02:38:44.768Z,5.80
2022-12-19T02:41:57.574Z,5.85
2022-12-19T02:45:05.289Z,6.05
2022-12-19T02:48:09.155Z,5.90
2022-12-19T02:51:12.324Z,7.28
2022-12-19T02:54:13.942Z,6.55
2022-12-19T02:57:58.685Z,4.82
2022-12-19T03:01:06.778Z,6.07
2022-12-19T03:04:15.552Z,6.22
2022-12-19T03:07:32.301Z,6.63
2022-12-19T03:10:56.732Z,6.53
2022-12-19T03:14:12.362Z,5.53
2022-12-19T03:17:14.841Z,5.75
2022-12-19T03:20:28.752Z,5.90
2022-12-19T03:23:31.294Z,5.22
2022-12-19T03:26:37.644Z,5.88
2022-12-19T03:30:03.627Z,9.10
2022-12-19T03:33:07.817Z,5.05
2022-12-19T03:39:16.579Z,5.78
2022-12-19T03:42:39.310Z,4.80
2022-12-19T03:45:48.202Z,5.45
2022-12-19T03:48:54.560Z,6.60
2022-12-19T03:52:10.700Z,5.00
2022-12-19T03:55:15.525Z,7.70
2022-12-19T03:58:24.677Z,6.60
2022-12-19T04:01:28.610Z,4.38
2022-12-19T04:04:34.553Z,4.30
2022-12-19T04:07:39.133Z,4.35
2022-12-19T04:10:55.710Z,4.68
2022-12-19T04:14:02.796Z,6.22
2022-12-19T04:17:08.539Z,5.95
2022-12-19T04:20:13.415Z,8.00
2022-12-19T04:23:20.721Z,4.88
2022-12-19T04:26:24.512Z,6.70
2022-12-19T04:29:30.932Z,7.65
2022-12-19T04:32:35.728Z,7.00
2022-12-19T04:35:38.098Z,5.80
2022-12-19T04:38:39.809Z,5.47
2022-12-19T04:41:41.337Z,6.00
2022-12-19T04:44:42.822Z,7.68
2022-12-19T04:47:44.305Z,6.05
2022-12-19T04:50:45.735Z,6.78
2022-12-19T04:53:47.333Z,7.50
2022-12-19T04:56:48.797Z,6.82
2022-12-19T04:59:50.281Z,5.10
2022-12-19T05:02:52.040Z,6.10
2022-12-19T05:05:53.957Z,5.05
2022-12-19T05:11:59.243Z,6.43
2022-12-19T05:15:01.435Z,6.43
2022-12-19T05:18:03.066Z,5.60
2022-12-19T05:21:05.317Z,6.90
2022-12-19T05:24:07.182Z,8.95
2022-12-19T05:27:08.799Z,7.28
2022-12-19T05:30:10.808Z,5.65
2022-12-19T05:33:12.384Z,4.85
2022-12-19T05:36:15.927Z,7.32
2022-12-19T05:39:17.549Z,7.17
2022-12-19T05:42:19.095Z,7.25
2022-12-19T05:45:20.711Z,8.05
2022-12-19T05:48:22.568Z,7.18
2022-12-19T05:51:24.181Z,9.05
2022-12-19T05:54:25.798Z,8.95
2022-12-19T05:57:27.328Z,7.82
2022-12-19T06:01:30.306Z,8.45
2022-12-19T06:04:32.084Z,6.85
2022-12-19T06:07:34.885Z,5.45
2022-12-19T06:10:36.585Z,6.90
2022-12-19T06:13:38.798Z,10.43
2022-12-19T06:16:40.618Z,11.55
2022-12-19T06:19:42.233Z,6.28
2022-12-19T06:22:43.877Z,6.38
2022-12-19T06:25:45.526Z,7.25
2022-12-19T06:28:52.246Z,9.35
2022-12-19T06:31:53.902Z,9.70
2022-12-19T06:35:03.948Z,6.85
2022-12-19T06:38:06.351Z,9.27
2022-12-19T06:41:28.398Z,7.18
2022-12-19T06:44:31.828Z,9.60
2022-12-19T06:47:33.397Z,8.15
2022-12-19T06:50:35.922Z,6.68
2022-12-19T06:53:37.535Z,8.48
2022-12-19T06:56:41.510Z,7.20
2022-12-19T06:59:43.464Z,8.25
2022-12-19T07:02:48.464Z,5.53
2022-12-19T07:05:50.534Z,6.75
2022-12-19T07:08:52.936Z,6.68
2022-12-19T07:11:54.474Z,7.43
2022-12-19T07:14:56.022Z,8.55
2022-12-19T07:17:59.521Z,7.93
2022-12-19T07:21:02.262Z,13.60
2022-12-19T07:24:04.518Z,7.65
2022-12-19T07:27:09.271Z,7.60
2022-12-19T07:30:11.727Z,10.90
2022-12-19T07:33:19.743Z,9.63
2022-12-19T07:36:22.941Z,9.07
2022-12-19T07:39:24.822Z,6.57
2022-12-19T07:42:32.137Z,7.05
2022-12-19T07:45:37.924Z,6.90
2022-12-19T07:48:40.466Z,8.98
2022-12-19T07:51:42.057Z,18.00
2022-12-19T07:54:43.629Z,13.13
2022-12-19T07:57:45.137Z,10.32
2022-12-19T08:00:54.026Z,10.15
2022-12-19T08:03:55.923Z,8.10
2022-12-19T08:06:57.548Z,10.63
2022-12-19T08:09:59.088Z,7.95
2022-12-19T08:13:00.669Z,12.00
2022-12-19T08:16:02.347Z,7.53
2022-12-19T08:19:04.150Z,5.45
2022-12-19T08:22:05.635Z,7.72
2022-12-19T08:25:07.916Z,9.18
2022-12-19T08:28:10.284Z,6.78
2022-12-19T08:31:15.230Z,7.65
2022-12-19T08:34:16.777Z,6.28
2022-12-19T08:37:18.360Z,6.85
2022-12-19T08:40:20.085Z,8.48
2022-12-19T08:43:21.795Z,7.88
2022-12-19T08:46:23.782Z,7.78
2022-12-19T08:49:25.426Z,7.95
2022-12-19T08:52:27.025Z,5.47
2022-12-19T08:55:28.641Z,7.43
2022-12-19T08:58:31.412Z,9.10
2022-12-19T09:01:33.066Z,11.55
2022-12-19T09:06:00.193Z,13.80
2022-12-19T09:07:56.211Z,6.35
2022-12-19T09:11:02.665Z,8.10
2022-12-19T09:14:05.134Z,7.82
2022-12-19T09:17:06.948Z,10.63
2022-12-19T09:20:10.841Z,11.55
2022-12-19T09:23:12.431Z,13.13
2022-12-19T09:26:14.064Z,10.15
2022-12-19T09:29:20.498Z,7.18
2022-12-19T09:32:23.112Z,14.00
2022-12-19T09:35:30.049Z,9.95
2022-12-19T09:38:33.776Z,14.90
2022-12-19T09:41:57.957Z,18.05
2022-12-19T09:45:14.499Z,9.38
2022-12-19T09:48:23.939Z,13.25
2022-12-19T09:51:41.449Z,11.75
2022-12-19T09:54:57.215Z,10.63
2022-12-19T09:58:12.040Z,10.38
2022-12-19T10:01:24.647Z,11.65
2022-12-19T10:04:29.767Z,11.57
2022-12-19T10:08:01.345Z,10.85
2022-12-19T10:12:38.374Z,11.48
2022-12-19T10:14:47.688Z,12.27
2022-12-19T10:17:58.421Z,14.48
2022-12-19T10:21:20.102Z,18.38
2022-12-19T10:25:09.217Z,19.27
2022-12-19T10:28:11.228Z,15.52
2022-12-19T10:31:27.720Z,20.98
2022-12-19T10:34:41.081Z,12.50
2022-12-19T10:38:18.104Z,21.77
2022-12-19T10:41:28.978Z,13.82
2022-12-19T10:44:36.064Z,10.10
2022-12-19T10:47:37.780Z,8.48
2022-12-19T10:50:39.376Z,11.13
2022-12-19T10:53:41.021Z,9.95
2022-12-19T10:56:45.606Z,8.98
2022-12-19T11:00:00.695Z,13.30
2022-12-19T11:03:19.262Z,11.57
2022-12-19T11:06:48.514Z,8.77
2022-12-19T11:10:05.336Z,10.68
2022-12-19T11:19:27.543Z,8.63
2022-12-19T11:22:05.349Z,12.38
2022-12-19T11:29:18.963Z,8.82
2022-12-19T11:29:42.537Z,11.05
2022-12-19T11:30:46.433Z,15.63
2022-12-19T11:34:50.401Z,9.18
2022-12-19T11:37:56.205Z,6.00
2022-12-19T11:41:02.357Z,7.20
2022-12-19T11:44:19.431Z,9.25
2022-12-19T11:47:35.849Z,9.60
2022-12-19T11:50:59.961Z,6.28
2022-12-19T11:54:20.593Z,5.85
2022-12-19T11:57:22.347Z,7.60
2022-12-19T12:00:24.796Z,5.63
2022-12-19T12:04:01.134Z,5.15
2022-12-19T12:07:20.470Z,6.80
2022-12-19T12:14:39.745Z,7.77
2022-12-19T12:22:40.789Z,7.47
2022-12-19T12:29:36.606Z,8.90
2022-12-19T12:31:22.520Z,9.50
2022-12-19T12:31:42.134Z,11.88
2022-12-19T12:31:49.684Z,11.02
2022-12-19T12:35:50.921Z,7.90
2022-12-19T12:39:57.885Z,7.80
2022-12-19T12:43:31.782Z,6.20
2022-12-19T12:46:40.798Z,8.63
2022-12-19T12:49:46.078Z,9.15
2022-12-19T12:52:54.869Z,8.65
2022-12-19T12:55:58.978Z,10.13
2022-12-19T12:59:00.793Z,8.57
2022-12-19T13:02:18.424Z,8.13
2022-12-19T13:05:32.200Z,7.70
2022-12-19T13:08:45.982Z,6.00
2022-12-19T13:12:09.662Z,6.57
2022-12-19T13:15:29.859Z,7.57
2022-12-19T13:18:37.947Z,9.18
2022-12-19T13:22:04.662Z,9.02
2022-12-19T13:25:43.972Z,7.15
2022-12-19T13:28:45.565Z,13.27
2022-12-19T13:32:08.396Z,19.90
2022-12-19T13:35:54.336Z,16.08
2022-12-19T13:39:57.247Z,16.58
2022-12-19T13:42:28.660Z,10.20
2022-12-19T13:45:32.818Z,11.05
2022-12-19T13:51:47.159Z,10.32
2022-12-19T13:54:51.664Z,11.50
2022-12-19T13:57:54.839Z,13.63
2022-12-19T14:01:01.084Z,12.82
2022-12-19T14:04:09.266Z,13.85
2022-12-19T14:07:41.676Z,10.18
2022-12-19T14:11:31.665Z,13.57
2022-12-19T14:14:34.258Z,10.60
2022-12-19T14:17:35.809Z,13.52
2022-12-19T14:22:04.658Z,12.23
2022-12-19T14:24:15.397Z,8.63
2022-12-19T14:28:26.021Z,9.93
2022-12-19T14:30:43.580Z,14.30
2022-12-19T14:34:04.714Z,13.98
2022-12-19T14:39:20.229Z,13.23
2022-12-19T14:41:09.403Z,26.27
2022-12-19T14:51:42.905Z,14.43
2022-12-19T14:53:08.439Z,12.07
2022-12-19T14:54:34.885Z,11.65
2022-12-19T14:58:53.612Z,11.45
2022-12-19T15:01:34.915Z,11.13
2022-12-19T15:04:50.397Z,15.23
2022-12-19T15:07:58.901Z,13.00
2022-12-19T15:11:44.484Z,10.80
2022-12-19T15:14:58.990Z,12.57
2022-12-19T15:18:15.987Z,16.55
2022-12-19T15:21:17.532Z,14.38
2022-12-19T15:24:46.504Z,12.02
2022-12-19T15:27:48.229Z,10.77
2022-12-19T15:30:58.352Z,8.88
2022-12-19T15:37:22.506Z,9.70
2022-12-19T15:40:24.154Z,11.60
2022-12-19T15:44:02.046Z,14.07
2022-12-19T15:46:49.369Z,9.52
2022-12-19T15:49:51.138Z,13.88
2022-12-19T15:52:58.201Z,13.15
2022-12-19T15:56:01.617Z,26.73
2022-12-19T15:59:05.166Z,13.87
2022-12-19T16:02:17.318Z,11.15
2022-12-19T16:05:21.085Z,11.68
2022-12-19T16:08:26.201Z,18.60
2022-12-19T16:11:28.245Z,23.02
2022-12-19T16:14:29.877Z,17.83
2022-12-19T16:17:33.883Z,19.63
2022-12-19T16:20:39.346Z,23.52
2022-12-19T16:23:40.985Z,23.98
2022-12-19T16:26:43.033Z,20.83
2022-12-19T16:29:46.054Z,15.48
2022-12-19T16:32:48.594Z,17.13
2022-12-19T16:36:07.731Z,14.82
2022-12-19T16:39:09.592Z,19.92
2022-12-19T16:42:16.343Z,21.35
2022-12-19T16:45:24.647Z,19.70
2022-12-19T16:48:29.643Z,22.02
2022-12-19T16:51:31.219Z,27.02
2022-12-19T16:54:32.765Z,27.48
2022-12-19T16:57:34.793Z,34.65
2022-12-19T17:00:37.608Z,56.50
2022-12-19T17:03:41.939Z,48.13
2022-12-19T17:06:44.049Z,22.23
2022-12-19T17:09:45.639Z,11.98
2022-12-19T17:12:48.037Z,10.05
2022-12-19T17:15:56.403Z,11.30
2022-12-19T17:18:59.369Z,14.00
2022-12-19T17:22:00.857Z,11.23
2022-12-19T17:25:12.203Z,12.52
2022-12-19T17:28:13.914Z,11.00
2022-12-19T17:31:28.299Z,26.55
2022-12-19T17:34:33.782Z,12.55
2022-12-19T17:37:35.335Z,15.60
2022-12-19T17:40:36.848Z,8.73
2022-12-19T17:43:38.335Z,21.45
2022-12-19T17:46:40.095Z,22.83
2022-12-19T17:49:42.064Z,17.98
2022-12-19T17:52:43.672Z,16.88
2022-12-19T17:55:45.323Z,34.67
2022-12-19T17:58:48.021Z,17.27
2022-12-19T18:01:49.948Z,20.95
2022-12-19T18:04:52.692Z,18.05
2022-12-19T18:07:54.994Z,12.52
2022-12-19T18:11:01.812Z,13.30
2022-12-19T18:14:03.540Z,12.18
2022-12-19T18:17:05.495Z,11.85
2022-12-19T18:20:32.550Z,11.73
2022-12-19T18:23:34.457Z,12.70
2022-12-19T18:26:36.133Z,12.43
2022-12-19T18:29:37.808Z,10.07
2022-12-19T18:32:39.393Z,10.80
2022-12-19T18:35:43.611Z,9.95
2022-12-19T18:41:47.387Z,9.00
2022-12-19T18:44:49.093Z,38.20
2022-12-19T18:47:58.311Z,14.43
2022-12-19T18:51:01.461Z,10.07
2022-12-19T18:54:11.935Z,9.27
2022-12-19T18:57:14.567Z,11.25
2022-12-19T19:00:22.199Z,10.10
2022-12-19T19:03:29.386Z,9.50
2022-12-19T19:06:37.337Z,8.95
2022-12-19T19:09:39.494Z,8.32
2022-12-19T19:13:09.997Z,9.82
2022-12-19T19:16:30.014Z,9.45
2022-12-19T19:19:31.846Z,8.13
2022-12-19T19:22:33.819Z,12.23
2022-12-19T19:25:35.998Z,15.13
2022-12-19T19:28:39.376Z,19.20
2022-12-19T19:31:45.798Z,25.25
2022-12-19T19:34:48.351Z,23.45
2022-12-19T19:37:52.834Z,19.73
2022-12-19T19:40:54.382Z,11.05
2022-12-19T19:43:59.872Z,7.78
2022-12-19T19:47:01.986Z,8.02
2022-12-19T19:50:07.724Z,16.88
2022-12-19T19:53:09.338Z,9.55
2022-12-19T19:56:10.861Z,70.75
2022-12-19T19:59:12.611Z,23.30
2022-12-19T20:02:33.259Z,17.80
2022-12-19T20:05:38.019Z,20.90
2022-12-19T20:08:40.877Z,25.88
2022-12-19T20:11:42.892Z,35.33
2022-12-19T20:14:44.681Z,25.77
2022-12-19T20:17:46.358Z,16.60
2022-12-19T20:20:48.831Z,12.27
2022-12-19T20:23:50.837Z,16.75
2022-12-19T20:26:52.600Z,16.45
2022-12-19T20:29:54.269Z,19.08
2022-12-19T20:32:55.777Z,32.80
2022-12-19T20:35:58.381Z,27.52
2022-12-19T20:38:59.919Z,29.52
2022-12-19T20:42:01.537Z,26.98
2022-12-19T20:45:03.639Z,21.85
2022-12-19T20:48:05.305Z,14.70
2022-12-19T20:51:07.788Z,20.17
2022-12-19T20:54:11.498Z,18.85
2022-12-19T20:57:13.008Z,18.13
2022-12-19T21:00:15.137Z,12.43
2022-12-19T21:03:27.794Z,11.88
2022-12-19T21:06:30.359Z,15.63
2022-12-19T21:09:32.023Z,10.60
2022-12-19T21:12:33.658Z,7.78
2022-12-19T21:15:35.186Z,5.90
2022-12-19T21:18:39.115Z,8.30
2022-12-19T21:21:40.773Z,7.45
2022-12-19T21:24:42.338Z,7.47
2022-12-19T21:27:43.896Z,6.88
2022-12-19T21:30:45.518Z,10.73
2022-12-19T21:33:47.754Z,8.15
2022-12-19T21:36:49.277Z,8.75
2022-12-19T21:39:50.849Z,9.52
2022-12-19T21:42:52.463Z,7.22
2022-12-19T21:46:04.176Z,10.18
2022-12-19T21:49:08.412Z,8.52
2022-12-19T21:55:11.727Z,6.70
2022-12-19T21:58:13.328Z,7.80
2022-12-19T22:01:15.693Z,11.15
2022-12-19T22:04:23.806Z,10.45
2022-12-19T22:07:25.385Z,32.53
2022-12-19T22:10:26.922Z,19.02
2022-12-19T22:13:29.313Z,12.45
2022-12-19T22:16:31.755Z,14.80
2022-12-19T22:19:33.427Z,13.48
2022-12-19T22:22:34.964Z,25.70
2022-12-19T22:25:36.688Z,18.73
2022-12-19T22:28:40.332Z,15.52
2022-12-19T22:31:42.750Z,12.93
2022-12-19T22:34:47.279Z,12.80
2022-12-19T22:37:48.922Z,11.27
2022-12-19T22:40:50.584Z,10.50
2022-12-19T22:43:53.089Z,12.05
2022-12-19T22:46:54.732Z,10.23
2022-12-19T22:49:56.339Z,7.65
2022-12-19T22:52:57.958Z,8.40
2022-12-19T22:56:06.262Z,10.23
2022-12-19T22:59:08.993Z,8.20
2022-12-19T23:02:10.691Z,7.63
2022-12-19T23:05:12.430Z,8.45
2022-12-19T23:08:13.937Z,6.85
2022-12-19T23:11:18.998Z,7.07
2022-12-19T23:14:20.988Z,7.50
2022-12-19T23:17:22.553Z,9.07
2022-12-19T23:20:24.035Z,8.98
2022-12-19T23:23:25.682Z,7.10
2022-12-19T23:26:29.960Z,7.40
2022-12-19T23:29:31.553Z,7.55
2022-12-19T23:32:33.114Z,8.70
2022-12-19T23:35:34.982Z,4.85
2022-12-19T23:38:36.643Z,13.30
2022-12-19T23:41:38.463Z,21.52
2022-12-19T23:44:40.110Z,13.70
2022-12-19T23:47:41.691Z,11.57
2022-12-19T23:50:43.298Z,6.70
2022-12-19T23:53:45.273Z,8.02
2022-12-19T23:56:46.921Z,8.45
2022-12-19T23:59:48.645Z,9.57
